createdAt,value
2019-01-29T00:00:32.645Z,18.83
2019-01-29T00:03:03.812Z,20.47
2019-01-29T00:05:35.047Z,20.73
2019-01-29T00:08:05.619Z,18.90
2019-01-29T00:10:36.535Z,18.70
2019-01-29T00:13:07.120Z,19.80
2019-01-29T00:15:38.156Z,21.40
2019-01-29T00:18:08.871Z,20.33
2019-01-29T00:20:39.579Z,17.63
2019-01-29T00:23:10.178Z,16.60
2019-01-29T00:25:41.298Z,16.63
2019-01-29T00:28:12.342Z,15.40
2019-01-29T00:30:43.195Z,19.20
2019-01-29T00:33:13.805Z,17.83
2019-01-29T00:35:45.405Z,17.00
2019-01-29T00:38:15.912Z,16.80
2019-01-29T00:40:46.416Z,16.60
2019-01-29T00:43:17.227Z,15.27
2019-01-29T00:45:47.720Z,18.03
2019-01-29T00:48:18.169Z,18.27
2019-01-29T00:50:49.163Z,17.40
2019-01-29T00:53:20.118Z,16.73
2019-01-29T00:55:50.615Z,16.50
2019-01-29T00:58:20.964Z,17.17
2019-01-29T01:00:52.046Z,17.40
2019-01-29T01:03:22.416Z,16.90
2019-01-29T01:05:53.009Z,15.87
2019-01-29T01:08:23.264Z,16.70
2019-01-29T01:10:54.224Z,16.47
2019-01-29T01:13:26.053Z,16.53
2019-01-29T01:15:58.167Z,15.50
2019-01-29T01:18:28.610Z,16.50
2019-01-29T01:21:00.347Z,17.17
2019-01-29T01:23:31.264Z,16.10
2019-01-29T01:26:02.272Z,16.37
2019-01-29T01:28:32.690Z,16.40
2019-01-29T01:31:03.287Z,14.60
2019-01-29T01:33:33.820Z,14.40
2019-01-29T01:36:04.936Z,15.73
2019-01-29T01:38:36.310Z,16.90
2019-01-29T01:41:07.029Z,14.80
2019-01-29T01:43:37.735Z,15.17
2019-01-29T01:46:08.036Z,14.30
2019-01-29T01:48:38.651Z,15.17
2019-01-29T01:51:09.543Z,14.97
2019-01-29T01:53:40.139Z,15.10
2019-01-29T01:56:10.705Z,14.13
2019-01-29T01:58:41.823Z,14.10
2019-01-29T02:01:12.144Z,15.07
2019-01-29T02:03:42.833Z,13.40
2019-01-29T02:06:13.507Z,13.70
2019-01-29T02:08:43.966Z,13.07
2019-01-29T02:11:14.579Z,13.80
2019-01-29T02:13:45.575Z,14.10
2019-01-29T02:16:16.139Z,12.10
2019-01-29T02:18:46.656Z,12.60
2019-01-29T02:21:17.426Z,13.10
2019-01-29T02:23:48.387Z,11.73
2019-01-29T02:26:20.373Z,11.17
2019-01-29T02:28:53.542Z,12.77
2019-01-29T02:31:25.543Z,11.20
2019-01-29T02:33:55.938Z,11.90
2019-01-29T02:36:26.614Z,11.67
2019-01-29T02:38:59.973Z,12.07
2019-01-29T02:41:30.707Z,10.90
2019-01-29T02:44:01.154Z,11.20
2019-01-29T02:46:32.273Z,10.97
2019-01-29T02:49:03.177Z,11.57
2019-01-29T02:51:33.939Z,10.50
2019-01-29T02:54:04.615Z,11.67
2019-01-29T02:56:35.427Z,10.60
2019-01-29T02:59:06.418Z,11.90
2019-01-29T03:01:37.438Z,10.37
2019-01-29T03:10:18.001Z,12.17
2019-01-29T03:12:48.390Z,12.13
2019-01-29T03:15:25.136Z,11.43
2019-01-29T03:17:56.027Z,9.90
2019-01-29T03:20:26.672Z,10.43
2019-01-29T03:22:58.336Z,11.40
2019-01-29T03:25:29.032Z,11.83
2019-01-29T03:28:00.059Z,10.50
2019-01-29T03:30:31.058Z,10.30
2019-01-29T03:33:02.059Z,10.67
2019-01-29T03:35:32.926Z,11.50
2019-01-29T03:38:03.739Z,11.13
2019-01-29T03:40:35.014Z,10.30
2019-01-29T03:43:05.855Z,9.50
2019-01-29T03:45:36.733Z,12.80
2019-01-29T03:48:07.916Z,10.50
2019-01-29T03:50:38.771Z,11.10
2019-01-29T03:53:09.286Z,12.87
2019-01-29T03:55:40.048Z,10.90
2019-01-29T03:58:11.327Z,11.20
2019-01-29T04:00:42.211Z,11.30
2019-01-29T04:03:12.777Z,11.57
2019-01-29T04:05:43.510Z,10.90
2019-01-29T04:08:14.766Z,12.17
2019-01-29T04:10:48.867Z,9.80
2019-01-29T04:13:19.244Z,9.10
2019-01-29T04:15:50.736Z,10.10
2019-01-29T04:18:22.337Z,9.90
2019-01-29T04:20:52.896Z,9.53
2019-01-29T04:23:23.456Z,9.40
2019-01-29T04:25:54.689Z,8.63
2019-01-29T04:28:25.179Z,8.17
2019-01-29T04:30:55.606Z,8.90
2019-01-29T04:33:26.614Z,8.60
2019-01-29T04:35:57.591Z,8.67
2019-01-29T04:38:28.339Z,8.67
2019-01-29T04:40:58.977Z,8.10
2019-01-29T04:43:30.087Z,7.23
2019-01-29T04:46:00.809Z,7.67
2019-01-29T04:48:32.340Z,8.20
2019-01-29T04:51:02.959Z,7.40
2019-01-29T04:53:33.977Z,8.27
2019-01-29T04:56:04.293Z,7.07
2019-01-29T04:58:34.759Z,7.70
2019-01-29T05:01:05.440Z,7.20
2019-01-29T05:03:36.195Z,8.37
2019-01-29T05:06:07.441Z,8.30
2019-01-29T05:08:38.176Z,8.33
2019-01-29T05:11:08.935Z,8.57
2019-01-29T05:13:40.281Z,7.80
2019-01-29T05:16:11.005Z,7.50
2019-01-29T05:18:41.662Z,6.60
2019-01-29T05:21:12.462Z,6.17
2019-01-29T05:23:43.532Z,5.83
2019-01-29T05:26:15.287Z,5.27
2019-01-29T05:28:46.277Z,5.63
2019-01-29T05:31:17.143Z,5.40
2019-01-29T05:33:48.171Z,5.27
2019-01-29T05:36:18.588Z,5.50
2019-01-29T05:38:48.819Z,5.20
2019-01-29T05:41:19.463Z,5.40
2019-01-29T05:43:49.896Z,5.87
2019-01-29T05:46:20.327Z,6.33
2019-01-29T05:48:50.959Z,5.67
2019-01-29T05:51:21.739Z,5.33
2019-01-29T05:53:53.309Z,6.80
2019-01-29T05:56:23.591Z,7.83
2019-01-29T05:58:56.112Z,6.37
2019-01-29T06:01:26.683Z,6.17
2019-01-29T06:03:57.282Z,7.37
2019-01-29T06:06:28.007Z,6.43
2019-01-29T06:08:59.660Z,7.33
2019-01-29T06:11:30.615Z,5.73
2019-01-29T06:14:02.568Z,6.80
2019-01-29T06:16:33.805Z,6.03
2019-01-29T06:19:04.205Z,6.53
2019-01-29T06:21:35.142Z,5.80
2019-01-29T06:24:05.514Z,7.20
2019-01-29T06:26:36.098Z,5.90
2019-01-29T06:29:06.928Z,5.90
2019-01-29T06:31:37.358Z,5.97
2019-01-29T06:34:08.678Z,6.10
2019-01-29T06:36:39.448Z,6.93
2019-01-29T06:39:10.517Z,5.67
2019-01-29T06:41:41.506Z,7.03
2019-01-29T06:44:12.501Z,5.77
2019-01-29T06:46:43.441Z,6.90
2019-01-29T06:49:14.093Z,7.20
2019-01-29T06:51:44.781Z,6.80
2019-01-29T06:54:15.192Z,6.57
2019-01-29T06:56:45.954Z,7.40
2019-01-29T06:59:16.994Z,7.00
2019-01-29T07:01:47.595Z,8.37
2019-01-29T07:04:18.152Z,7.17
2019-01-29T07:06:48.547Z,8.50
2019-01-29T07:09:19.840Z,9.20
2019-01-29T07:12:03.802Z,8.13
2019-01-29T07:14:37.839Z,7.60
2019-01-29T07:17:24.413Z,7.63
2019-01-29T07:19:57.479Z,7.50
2019-01-29T07:22:28.207Z,7.77
2019-01-29T07:24:58.859Z,7.33
2019-01-29T07:27:32.299Z,7.57
2019-01-29T07:30:02.555Z,7.87
2019-01-29T07:32:33.127Z,7.00
2019-01-29T07:35:05.186Z,7.80
2019-01-29T07:37:39.069Z,8.20
2019-01-29T07:40:09.926Z,8.40
2019-01-29T07:42:40.610Z,8.17
2019-01-29T07:45:11.599Z,8.60
2019-01-29T07:47:43.108Z,7.50
2019-01-29T07:50:14.421Z,8.07
2019-01-29T07:52:45.165Z,9.37
2019-01-29T07:55:16.235Z,7.67
2019-01-29T07:57:47.030Z,8.40
2019-01-29T08:00:18.102Z,7.83
2019-01-29T08:02:48.663Z,8.47
2019-01-29T08:05:21.947Z,8.30
2019-01-29T08:07:52.454Z,7.80
2019-01-29T08:10:24.731Z,22.77
2019-01-29T08:12:56.598Z,7.80
2019-01-29T08:15:28.373Z,8.40
2019-01-29T08:17:59.057Z,7.80
2019-01-29T08:20:29.913Z,9.20
2019-01-29T08:23:01.041Z,8.97
2019-01-29T08:25:31.905Z,8.90
2019-01-29T08:28:02.898Z,8.67
2019-01-29T08:30:33.675Z,8.10
2019-01-29T08:33:04.482Z,7.57
2019-01-29T08:35:35.221Z,8.30
2019-01-29T08:38:05.799Z,9.10
2019-01-29T08:40:36.972Z,9.50
2019-01-29T08:43:11.382Z,10.43
2019-01-29T08:45:42.218Z,10.10
2019-01-29T08:48:14.345Z,10.70
2019-01-29T08:50:46.384Z,9.43
2019-01-29T08:53:17.214Z,9.60
2019-01-29T08:55:48.202Z,9.30
2019-01-29T08:58:26.863Z,11.27
2019-01-29T09:00:52.419Z,8.80
2019-01-29T09:03:23.140Z,11.70
2019-01-29T09:05:54.584Z,10.40
2019-01-29T09:08:25.732Z,9.80
2019-01-29T09:10:56.705Z,11.10
2019-01-29T09:13:27.238Z,9.73
2019-01-29T09:15:57.925Z,10.50
2019-01-29T09:18:29.054Z,12.27
2019-01-29T09:20:59.793Z,10.77
2019-01-29T09:23:30.701Z,10.30
2019-01-29T09:26:01.015Z,10.23
2019-01-29T09:28:31.499Z,12.93
2019-01-29T09:31:02.913Z,10.80
2019-01-29T09:33:34.545Z,11.27
2019-01-29T09:36:05.440Z,11.13
2019-01-29T09:38:35.976Z,11.17
2019-01-29T09:41:07.014Z,10.67
2019-01-29T09:43:37.810Z,11.60
2019-01-29T09:46:09.203Z,11.30
2019-01-29T09:48:40.055Z,10.50
2019-01-29T09:51:11.116Z,10.53
2019-01-29T09:53:42.134Z,11.60
2019-01-29T09:56:14.564Z,10.00
2019-01-29T09:58:46.289Z,10.70
2019-01-29T10:01:16.731Z,10.20
2019-01-29T10:03:48.325Z,10.63
2019-01-29T10:06:19.292Z,11.03
2019-01-29T10:08:50.061Z,11.80
2019-01-29T10:11:20.942Z,12.40
2019-01-29T10:13:52.221Z,11.60
2019-01-29T10:16:23.221Z,13.60
2019-01-29T10:18:55.186Z,12.83
2019-01-29T10:21:25.857Z,10.90
2019-01-29T10:23:57.585Z,11.90
2019-01-29T10:26:29.252Z,12.13
2019-01-29T10:29:00.224Z,13.10
2019-01-29T10:31:31.905Z,12.20
2019-01-29T10:34:02.763Z,12.13
2019-01-29T10:36:33.695Z,12.10
2019-01-29T10:39:06.596Z,11.57
2019-01-29T10:41:37.048Z,12.63
2019-01-29T10:44:07.578Z,12.90
2019-01-29T10:46:38.829Z,13.30
2019-01-29T10:49:10.234Z,11.60
2019-01-29T10:51:41.248Z,14.93
2019-01-29T10:54:12.619Z,13.27
2019-01-29T10:56:43.538Z,13.50
2019-01-29T10:59:14.103Z,13.20
2019-01-29T11:01:44.651Z,12.87
2019-01-29T11:04:15.342Z,13.37
2019-01-29T11:06:46.628Z,14.10
2019-01-29T11:09:24.990Z,14.37
2019-01-29T11:11:49.680Z,14.60
2019-01-29T11:14:20.372Z,12.80
2019-01-29T11:16:51.479Z,13.80
2019-01-29T11:19:22.365Z,14.20
2019-01-29T11:21:53.115Z,14.13
2019-01-29T11:24:23.916Z,15.17
2019-01-29T11:26:55.420Z,14.30
2019-01-29T11:29:26.758Z,14.07
2019-01-29T11:31:57.223Z,13.97
2019-01-29T11:34:29.016Z,14.00
2019-01-29T11:36:59.821Z,15.00
2019-01-29T11:39:31.030Z,14.20
2019-01-29T11:42:02.050Z,14.00
2019-01-29T11:44:32.617Z,13.87
2019-01-29T11:47:03.037Z,15.67
2019-01-29T11:49:33.950Z,14.73
2019-01-29T11:52:04.936Z,15.00
2019-01-29T11:54:35.643Z,15.07
2019-01-29T11:57:06.297Z,15.13
2019-01-29T11:59:36.971Z,15.77
2019-01-29T12:02:09.307Z,15.83
2019-01-29T12:04:39.814Z,15.63
2019-01-29T12:07:10.778Z,15.07
2019-01-29T12:09:41.578Z,14.73
2019-01-29T12:12:14.783Z,15.90
2019-01-29T12:14:45.889Z,15.60
2019-01-29T12:17:16.309Z,15.87
2019-01-29T12:19:47.146Z,15.20
2019-01-29T12:22:17.850Z,15.87
2019-01-29T12:24:49.683Z,15.47
2019-01-29T12:27:20.227Z,16.03
2019-01-29T12:29:50.835Z,15.53
2019-01-29T12:32:22.479Z,14.20
2019-01-29T12:34:52.883Z,15.67
2019-01-29T12:37:23.661Z,14.50
2019-01-29T12:39:54.447Z,13.93
2019-01-29T12:42:24.945Z,13.97
2019-01-29T12:44:55.696Z,14.47
2019-01-29T12:47:26.241Z,15.97
2019-01-29T12:49:57.399Z,15.07
2019-01-29T12:52:55.962Z,15.10
2019-01-29T12:55:26.854Z,15.77
2019-01-29T12:57:57.799Z,14.53
2019-01-29T13:03:57.799Z,15.37
2019-01-29T13:06:28.704Z,15.73
2019-01-29T13:08:59.995Z,15.87
2019-01-29T13:11:31.554Z,16.13
2019-01-29T13:14:02.918Z,16.73
2019-01-29T13:16:33.751Z,20.03
2019-01-29T13:19:05.094Z,16.80
2019-01-29T13:21:36.464Z,16.80
2019-01-29T13:24:08.129Z,17.20
2019-01-29T13:26:38.810Z,18.80
2019-01-29T13:29:09.576Z,16.13
2019-01-29T13:31:40.707Z,16.73
2019-01-29T13:34:11.967Z,17.10
2019-01-29T13:36:43.543Z,20.70
2019-01-29T13:39:14.381Z,18.00
2019-01-29T13:41:45.086Z,18.00
2019-01-29T13:44:15.640Z,17.90
2019-01-29T13:46:46.529Z,16.60
2019-01-29T13:49:17.362Z,17.63
2019-01-29T13:51:48.094Z,17.57
2019-01-29T13:54:19.068Z,18.60
2019-01-29T13:56:49.839Z,18.27
2019-01-29T13:59:21.686Z,17.50
2019-01-29T14:01:52.775Z,18.00
2019-01-29T14:04:23.742Z,19.17
2019-01-29T14:06:54.283Z,16.57
2019-01-29T14:09:24.991Z,17.60
2019-01-29T14:11:57.542Z,18.00
2019-01-29T14:14:29.740Z,17.80
2019-01-29T14:17:00.360Z,16.07
2019-01-29T14:19:31.578Z,15.10
2019-01-29T14:22:03.851Z,17.87
2019-01-29T14:24:35.013Z,17.30
2019-01-29T14:27:06.621Z,17.00
2019-01-29T14:29:38.301Z,16.90
2019-01-29T14:32:09.773Z,16.90
2019-01-29T14:34:40.372Z,16.70
2019-01-29T14:37:10.876Z,17.23
2019-01-29T14:40:17.717Z,17.63
2019-01-29T14:42:50.086Z,17.70
2019-01-29T14:45:24.223Z,16.20
2019-01-29T14:47:56.139Z,17.40
2019-01-29T14:50:29.265Z,16.80
2019-01-29T14:53:00.047Z,15.97
2019-01-29T14:55:30.734Z,17.50
2019-01-29T14:58:01.372Z,17.20
2019-01-29T15:00:33.091Z,16.90
2019-01-29T15:03:03.813Z,15.17
2019-01-29T15:05:34.924Z,15.27
2019-01-29T15:08:06.256Z,15.27
2019-01-29T15:10:37.490Z,15.57
2019-01-29T15:13:09.593Z,14.40
2019-01-29T15:15:45.108Z,15.77
2019-01-29T15:18:22.547Z,17.73
2019-01-29T15:20:53.569Z,15.47
2019-01-29T15:23:24.099Z,17.07
2019-01-29T15:25:55.875Z,16.20
2019-01-29T15:28:26.377Z,16.77
2019-01-29T15:30:56.870Z,17.73
2019-01-29T15:33:27.588Z,18.10
2019-01-29T15:35:58.406Z,17.33
2019-01-29T15:38:29.396Z,18.97
2019-01-29T15:40:59.982Z,18.37
2019-01-29T15:43:30.807Z,19.20
2019-01-29T15:46:01.758Z,18.13
2019-01-29T15:48:33.204Z,25.57
2019-01-29T15:51:04.497Z,28.07
2019-01-29T15:53:35.572Z,20.97
2019-01-29T15:56:06.815Z,23.77
2019-01-29T15:58:38.121Z,21.60
2019-01-29T16:01:08.669Z,20.53
2019-01-29T16:03:39.333Z,20.80
2019-01-29T16:06:11.213Z,21.13
2019-01-29T16:08:41.819Z,20.03
2019-01-29T16:11:12.412Z,20.50
2019-01-29T16:13:43.447Z,21.80
2019-01-29T16:16:14.537Z,22.20
2019-01-29T16:18:46.234Z,20.57
2019-01-29T16:21:17.263Z,20.40
2019-01-29T16:23:48.156Z,20.27
2019-01-29T16:26:20.262Z,20.43
2019-01-29T16:28:51.269Z,20.90
2019-01-29T16:31:21.861Z,22.73
2019-01-29T16:33:54.209Z,20.67
2019-01-29T16:36:25.128Z,19.73
2019-01-29T16:38:56.028Z,22.47
2019-01-29T16:41:27.076Z,23.40
2019-01-29T16:43:58.157Z,22.30
2019-01-29T16:46:29.177Z,23.30
2019-01-29T16:48:59.772Z,22.60
2019-01-29T16:51:30.711Z,24.20
2019-01-29T16:54:01.413Z,24.90
2019-01-29T16:56:32.145Z,28.03
2019-01-29T16:59:03.108Z,27.90
2019-01-29T17:01:34.464Z,25.53
2019-01-29T17:04:06.944Z,25.57
2019-01-29T17:06:37.774Z,25.77
2019-01-29T17:09:13.384Z,27.50
2019-01-29T17:11:44.695Z,27.57
2019-01-29T17:14:16.272Z,30.40
2019-01-29T17:16:48.494Z,30.87
2019-01-29T17:19:19.241Z,25.47
2019-01-29T17:21:50.514Z,22.10
2019-01-29T17:24:22.028Z,24.20
2019-01-29T17:26:52.934Z,24.40
2019-01-29T17:29:23.956Z,25.17
2019-01-29T17:31:55.435Z,26.60
2019-01-29T17:34:28.505Z,25.60
2019-01-29T17:36:59.605Z,27.03
2019-01-29T17:39:31.292Z,28.63
2019-01-29T17:42:02.666Z,27.63
2019-01-29T17:44:33.945Z,30.50
2019-01-29T17:47:04.535Z,28.00
2019-01-29T17:49:35.819Z,28.20
2019-01-29T17:52:07.286Z,32.47
2019-01-29T17:54:37.938Z,28.97
2019-01-29T17:57:09.494Z,29.77
2019-01-29T17:59:41.242Z,31.70
2019-01-29T18:02:12.036Z,32.57
2019-01-29T18:04:43.279Z,31.33
2019-01-29T18:07:14.621Z,34.40
2019-01-29T18:09:45.984Z,33.13
2019-01-29T18:12:17.065Z,28.70
2019-01-29T18:14:50.253Z,29.53
2019-01-29T18:17:21.348Z,23.13
2019-01-29T18:19:53.369Z,21.60
2019-01-29T18:22:25.012Z,21.33
2019-01-29T18:24:56.479Z,22.00
2019-01-29T18:27:28.138Z,22.67
2019-01-29T18:30:00.187Z,21.50
2019-01-29T18:32:31.952Z,18.37
2019-01-29T18:35:03.745Z,21.37
2019-01-29T18:37:39.656Z,23.30
2019-01-29T18:40:13.568Z,23.67
2019-01-29T18:42:47.423Z,22.17
2019-01-29T18:45:21.636Z,19.53
2019-01-29T18:47:53.201Z,17.17
2019-01-29T18:50:24.723Z,17.47
2019-01-29T18:52:55.504Z,17.10
2019-01-29T18:55:28.244Z,17.43
2019-01-29T18:58:15.212Z,18.13
2019-01-29T19:00:54.405Z,21.80
2019-01-29T19:03:19.748Z,18.13
2019-01-29T19:05:50.890Z,18.57
2019-01-29T19:08:22.188Z,22.70
2019-01-29T19:10:53.719Z,25.33
2019-01-29T19:13:25.507Z,21.47
2019-01-29T19:15:56.879Z,22.73
2019-01-29T19:18:28.480Z,23.67
2019-01-29T19:21:00.287Z,25.03
2019-01-29T19:23:33.149Z,25.83
2019-01-29T19:26:05.319Z,20.40
2019-01-29T19:28:36.918Z,24.70
2019-01-29T19:31:08.625Z,23.30
2019-01-29T19:33:39.754Z,25.43
2019-01-29T19:36:11.345Z,23.40
2019-01-29T19:38:43.760Z,23.37
2019-01-29T19:41:16.203Z,22.87
2019-01-29T19:43:47.234Z,23.50
2019-01-29T19:46:18.979Z,22.97
2019-01-29T19:48:51.872Z,23.10
2019-01-29T19:51:22.941Z,27.43
2019-01-29T19:53:54.449Z,25.43
2019-01-29T19:56:25.720Z,31.07
2019-01-29T19:58:57.477Z,27.60
2019-01-29T20:01:28.957Z,28.17
2019-01-29T20:04:00.580Z,26.33
2019-01-29T20:06:33.459Z,25.47
2019-01-29T20:09:13.043Z,25.47
2019-01-29T20:11:45.160Z,27.00
2019-01-29T20:14:16.827Z,28.63
2019-01-29T20:16:50.416Z,29.27
2019-01-29T20:19:22.362Z,26.17
2019-01-29T20:21:54.292Z,28.90
2019-01-29T20:24:25.271Z,31.20
2019-01-29T20:26:57.886Z,31.90
2019-01-29T20:29:30.341Z,32.67
2019-01-29T20:32:03.549Z,33.57
2019-01-29T20:34:35.167Z,40.43
2019-01-29T20:37:07.811Z,39.90
2019-01-29T20:39:39.798Z,38.53
2019-01-29T20:42:12.398Z,38.37
2019-01-29T20:44:44.617Z,37.00
2019-01-29T20:47:16.556Z,40.03
2019-01-29T20:49:48.851Z,40.40
2019-01-29T20:52:19.859Z,46.60
2019-01-29T20:54:52.629Z,50.77
2019-01-29T20:57:23.968Z,51.70
2019-01-29T20:59:55.647Z,50.47
2019-01-29T21:02:26.556Z,50.37
2019-01-29T21:04:58.308Z,45.23
2019-01-29T21:07:29.680Z,45.73
2019-01-29T21:10:07.195Z,49.13
2019-01-29T21:12:38.549Z,53.57
2019-01-29T21:15:12.142Z,46.57
2019-01-29T21:17:44.020Z,50.43
2019-01-29T21:20:16.975Z,54.43
2019-01-29T21:22:48.665Z,51.80
2019-01-29T21:25:19.940Z,54.27
2019-01-29T21:27:52.214Z,55.07
2019-01-29T21:30:46.080Z,57.50
2019-01-29T21:33:17.097Z,58.47
2019-01-29T21:35:49.458Z,54.47
2019-01-29T21:38:20.298Z,56.70
2019-01-29T21:40:51.451Z,53.90
2019-01-29T21:43:22.344Z,59.70
2019-01-29T21:45:53.306Z,63.10
2019-01-29T21:48:24.406Z,58.87
2019-01-29T21:50:58.936Z,60.03
2019-01-29T21:53:31.997Z,60.30
2019-01-29T21:56:03.258Z,59.27
2019-01-29T21:58:34.425Z,59.03
2019-01-29T22:01:05.523Z,58.90
2019-01-29T22:03:36.818Z,61.00
2019-01-29T22:06:07.388Z,60.57
2019-01-29T22:08:38.338Z,59.47
2019-01-29T22:11:09.002Z,62.10
2019-01-29T22:13:39.568Z,65.90
2019-01-29T22:16:11.303Z,63.43
2019-01-29T22:18:42.703Z,66.03
2019-01-29T22:21:13.288Z,70.10
2019-01-29T22:23:44.294Z,73.10
2019-01-29T22:26:15.399Z,66.37
2019-01-29T22:28:46.206Z,66.77
2019-01-29T22:31:16.914Z,63.07
2019-01-29T22:33:48.255Z,67.20
2019-01-29T22:36:18.928Z,64.60
2019-01-29T22:38:49.644Z,64.13
2019-01-29T22:41:20.823Z,62.73
2019-01-29T22:43:52.123Z,71.37
2019-01-29T22:46:22.923Z,80.60
2019-01-29T22:48:54.226Z,76.43
2019-01-29T22:51:25.036Z,72.53
2019-01-29T22:53:55.651Z,70.60
2019-01-29T22:56:26.170Z,70.17
2019-01-29T22:58:57.125Z,66.07
2019-01-29T23:01:37.712Z,71.53
2019-01-29T23:04:26.021Z,71.70
2019-01-29T23:07:03.189Z,73.20
2019-01-29T23:09:34.279Z,64.50
2019-01-29T23:12:05.879Z,63.50
2019-01-29T23:14:36.850Z,60.80
2019-01-29T23:17:07.578Z,60.10
2019-01-29T23:19:38.382Z,53.20
2019-01-29T23:22:09.518Z,53.60
2019-01-29T23:24:40.867Z,51.87
2019-01-29T23:27:12.233Z,54.17
2019-01-29T23:29:43.844Z,52.23
2019-01-29T23:32:14.940Z,51.10
2019-01-29T23:34:45.945Z,55.37
2019-01-29T23:37:16.829Z,52.00
2019-01-29T23:39:47.985Z,53.30
2019-01-29T23:42:19.126Z,58.97
2019-01-29T23:44:49.744Z,63.93
2019-01-29T23:47:20.956Z,68.37
2019-01-29T23:49:51.177Z,78.83
2019-01-29T23:52:21.789Z,76.43
2019-01-29T23:54:55.965Z,66.30
2019-01-29T23:57:26.528Z,72.13
2019-01-29T23:59:56.934Z,78.73
